Time;durP1;ratioP1;P1;durP2;ratioP2;P2;SDS_P1;SDS_P2;PMS_P1;PMS_P2;Temp;Humidity;BMP_temperature;BMP_pressure;BME280_temperature;BME280_humidity;BME280_pressure;Samples;Min_cycle;Max_cycle;Signal;HPM_P1;HPM_P2
2021/07/30 00:00:00;;;;;;;5.05;3.80;;;14.70;99.90;;;;;;4953100;29;20476;-72
2021/07/30 00:02:26;;;;;;;7.72;4.32;;;14.60;99.90;;;;;;4954825;28;20046;-72
2021/07/30 00:04:53;;;;;;;5.72;4.32;;;14.50;99.90;;;;;;4954701;29;20031;-72
2021/07/30 00:07:19;;;;;;;8.55;4.80;;;14.40;99.90;;;;;;4953938;29;20062;-72
2021/07/30 00:09:45;;;;;;;6.70;4.60;;;14.50;99.90;;;;;;4952490;28;20031;-73
2021/07/30 00:12:11;;;;;;;6.43;4.28;;;14.60;99.90;;;;;;4952917;29;20028;-73
2021/07/30 00:14:37;;;;;;;6.57;4.22;;;14.60;99.90;;;;;;4954206;28;20039;-73
2021/07/30 00:17:04;;;;;;;6.47;4.35;;;14.50;99.90;;;;;;4952898;28;20051;-73
2021/07/30 00:19:30;;;;;;;6.90;4.22;;;14.40;99.90;;;;;;4954408;29;20035;-73
2021/07/30 00:21:56;;;;;;;7.10;4.32;;;14.50;99.90;;;;;;4954264;29;20358;-73
2021/07/30 00:24:22;;;;;;;4.55;3.97;;;14.60;99.90;;;;;;4953462;29;20046;-72
2021/07/30 00:26:50;;;;;;;6.90;4.35;;;14.70;99.90;;;;;;4954356;28;20054;-73
2021/07/30 00:29:17;;;;;;;10.07;4.90;;;14.80;99.90;;;;;;4953815;28;20047;-73
2021/07/30 00:31:44;;;;;;;8.15;4.82;;;14.90;99.90;;;;;;4953868;28;20421;-72
2021/07/30 00:34:10;;;;;;;7.00;3.85;;;15.10;99.90;;;;;;4953641;29;20031;-72
2021/07/30 00:36:36;;;;;;;7.35;4.18;;;15.20;99.90;;;;;;4953952;29;20393;-73
2021/07/30 00:39:03;;;;;;;7.20;5.22;;;15.30;99.90;;;;;;4953296;29;20054;-73
2021/07/30 00:41:35;;;;;;;5.50;4.05;;;15.40;99.90;;;;;;4953739;29;20035;-72
2021/07/30 00:44:02;;;;;;;6.45;4.28;;;15.40;99.90;;;;;;4953569;28;20086;-73
2021/07/30 00:46:29;;;;;;;6.10;4.45;;;15.40;99.90;;;;;;4952496;29;20484;-72
2021/07/30 00:48:55;;;;;;;5.55;4.25;;;15.50;99.90;;;;;;4954024;28;20055;-72
2021/07/30 00:51:22;;;;;;;6.28;4.55;;;15.60;99.90;;;;;;4935573;29;20036;-72
2021/07/30 00:53:50;;;;;;;9.85;4.25;;;15.60;99.90;;;;;;4952652;29;20104;-72
2021/07/30 00:56:17;;;;;;;6.57;3.97;;;15.70;99.90;;;;;;4953043;29;20465;-72
2021/07/30 00:58:43;;;;;;;5.47;4.75;;;15.70;99.90;;;;;;4953593;29;20051;-72
2021/07/30 01:01:10;;;;;;;5.95;5.28;;;15.80;99.90;;;;;;4951957;29;20388;-73
2021/07/30 01:03:37;;;;;;;9.07;6.18;;;15.80;99.90;;;;;;4952830;29;20039;-72
2021/07/30 01:06:03;;;;;;;6.03;5.43;;;15.90;99.90;;;;;;4953658;29;20058;-72
2021/07/30 01:08:30;;;;;;;6.75;5.15;;;16.00;99.90;;;;;;4953383;29;20035;-72
2021/07/30 01:10:56;;;;;;;6.90;5.00;;;16.00;99.90;;;;;;4953331;29;20377;-73
2021/07/30 01:13:22;;;;;;;7.78;4.50;;;16.10;99.90;;;;;;4953242;28;20054;-72
2021/07/30 01:15:48;;;;;;;6.20;4.40;;;16.10;99.90;;;;;;4953438;29;20421;-73
2021/07/30 01:18:15;;;;;;;6.28;4.13;;;16.20;99.90;;;;;;4951523;28;20051;-73
2021/07/30 01:20:43;;;;;;;6.95;4.25;;;16.20;99.90;;;;;;4954148;28;20032;-72
2021/07/30 01:23:10;;;;;;;7.57;4.57;;;16.30;99.90;;;;;;4951398;28;20417;-73
2021/07/30 01:25:37;;;;;;;5.88;4.03;;;16.30;99.90;;;;;;4952004;29;20027;-73
2021/07/30 01:28:04;;;;;;;6.78;4.28;;;16.30;99.90;;;;;;4951208;29;20055;-70
2021/07/30 01:30:30;;;;;;;8.32;5.15;;;16.30;99.90;;;;;;4953351;28;20406;-71
2021/07/30 01:32:56;;;;;;;8.57;5.03;;;16.20;99.90;;;;;;4952913;29;20038;-72
2021/07/30 01:35:23;;;;;;;6.82;5.60;;;16.20;99.90;;;;;;4952873;29;20046;-72
2021/07/30 01:37:49;;;;;;;7.20;5.13;;;16.20;99.90;;;;;;4953248;29;20039;-72
2021/07/30 01:40:15;;;;;;;9.27;5.30;;;16.20;99.90;;;;;;4952447;28;20051;-72
2021/07/30 01:42:42;;;;;;;7.45;5.43;;;16.20;99.90;;;;;;4951796;29;20040;-72
2021/07/30 01:45:09;;;;;;;7.03;5.20;;;16.10;99.90;;;;;;4952636;29;20393;-73
2021/07/30 01:47:36;;;;;;;6.53;4.82;;;16.10;99.90;;;;;;4951644;29;20050;-72
2021/07/30 01:50:03;;;;;;;5.85;4.70;;;16.10;99.90;;;;;;4934417;29;20036;-72
2021/07/30 01:52:29;;;;;;;7.30;5.57;;;16.10;99.90;;;;;;4951830;28;20039;-73
2021/07/30 01:54:55;;;;;;;7.88;5.70;;;16.10;99.90;;;;;;4952922;29;20385;-72
2021/07/30 01:57:21;;;;;;;6.35;4.93;;;16.00;99.90;;;;;;4951860;28;20044;-72
2021/07/30 01:59:47;;;;;;;6.03;4.70;;;16.00;99.90;;;;;;4966107;28;20421;-73
2021/07/30 02:02:14;;;;;;;13.20;5.32;;;16.00;99.90;;;;;;4952683;29;20035;-72
2021/07/30 02:04:40;;;;;;;6.13;4.78;;;16.00;99.90;;;;;;4952742;29;20040;-73
2021/07/30 02:07:06;;;;;;;6.40;4.43;;;16.00;99.90;;;;;;4951348;29;20043;-72
2021/07/30 02:09:32;;;;;;;5.65;4.32;;;16.00;99.90;;;;;;4951321;29;20039;-72
2021/07/30 02:11:59;;;;;;;5.38;3.97;;;16.00;99.90;;;;;;4952696;29;20062;-73
2021/07/30 02:14:28;;;;;;;7.45;4.90;;;16.00;99.90;;;;;;4952268;29;20035;-72
2021/07/30 02:16:55;;;;;;;6.68;4.85;;;16.00;99.90;;;;;;4953048;28;20043;-72
2021/07/30 02:19:22;;;;;;;5.57;4.50;;;16.00;99.90;;;;;;4952323;29;20047;-73
2021/07/30 02:21:50;;;;;;;7.65;4.57;;;16.00;99.90;;;;;;4952912;28;20043;-73
2021/07/30 02:24:16;;;;;;;7.15;4.20;;;15.90;99.90;;;;;;4952339;29;20481;-73
2021/07/30 02:26:43;;;;;;;5.97;4.30;;;16.00;99.90;;;;;;4952629;29;20385;-72
2021/07/30 02:29:10;;;;;;;6.82;4.78;;;16.00;99.90;;;;;;4952374;29;20461;-72
2021/07/30 02:31:36;;;;;;;6.53;4.50;;;16.00;99.90;;;;;;4952428;29;20062;-72
2021/07/30 02:34:02;;;;;;;8.77;5.55;;;16.00;99.90;;;;;;4955228;28;20058;-73
2021/07/30 02:36:29;;;;;;;6.15;5.05;;;16.00;99.90;;;;;;4956099;28;20417;-73
2021/07/30 02:38:55;;;;;;;7.18;5.35;;;16.00;99.90;;;;;;4956059;29;20043;-73
2021/07/30 02:41:22;;;;;;;5.95;4.72;;;16.00;99.90;;;;;;4954544;29;20035;-73
2021/07/30 02:43:48;;;;;;;6.05;5.25;;;16.00;99.90;;;;;;4956139;29;20389;-72
2021/07/30 02:46:16;;;;;;;11.43;6.50;;;16.00;99.90;;;;;;4955656;28;20051;-72
2021/07/30 02:48:44;;;;;;;6.90;5.15;;;15.90;99.90;;;;;;4955991;29;20043;-73
2021/07/30 02:51:12;;;;;;;8.25;5.93;;;16.00;99.90;;;;;;4955632;28;20039;-72
2021/07/30 02:53:39;;;;;;;6.90;5.28;;;16.00;99.90;;;;;;4948019;28;20070;-73
2021/07/30 02:56:08;;;;;;;6.97;5.20;;;16.00;99.90;;;;;;4954907;29;20031;-72
2021/07/30 02:58:36;;;;;;;8.45;6.00;;;16.00;99.90;;;;;;4937613;29;20051;-73
2021/07/30 03:01:03;;;;;;;7.30;5.18;;;15.90;99.90;;;;;;4954769;29;20473;-73
2021/07/30 03:03:30;;;;;;;9.35;5.50;;;15.90;99.90;;;;;;4954583;29;20040;-73
2021/07/30 03:05:59;;;;;;;6.60;4.78;;;16.00;99.90;;;;;;4956112;28;20047;-73
2021/07/30 03:08:27;;;;;;;8.50;5.22;;;16.00;99.90;;;;;;4939479;29;20494;-73
2021/07/30 03:10:53;;;;;;;5.90;5.25;;;15.90;99.90;;;;;;4954810;29;20031;-71
2021/07/30 03:13:19;;;;;;;6.25;4.95;;;15.90;99.90;;;;;;4955309;29;20027;-72
2021/07/30 03:15:45;;;;;;;6.93;4.82;;;15.90;99.90;;;;;;4955550;29;20031;-72
2021/07/30 03:18:11;;;;;;;8.18;5.57;;;15.90;99.90;;;;;;4954338;28;20055;-72
2021/07/30 03:20:38;;;;;;;7.47;5.10;;;15.90;99.90;;;;;;4955247;29;20386;-72
2021/07/30 03:23:04;;;;;;;9.02;5.57;;;15.90;99.90;;;;;;4950498;29;20035;-72
2021/07/30 03:25:30;;;;;;;8.50;6.20;;;15.90;99.90;;;;;;4950731;29;20031;-72
2021/07/30 03:27:56;;;;;;;9.10;6.47;;;15.90;99.90;;;;;;4953904;29;20039;-72
2021/07/30 03:30:22;;;;;;;9.52;6.47;;;15.90;99.90;;;;;;4954626;29;20050;-72
2021/07/30 03:32:48;;;;;;;6.88;5.97;;;15.80;99.90;;;;;;4969852;28;20044;-72
2021/07/30 03:35:15;;;;;;;7.20;5.82;;;15.80;99.90;;;;;;4954879;29;20457;-72
2021/07/30 03:37:41;;;;;;;7.60;5.40;;;15.80;99.90;;;;;;4955150;29;20031;-72
2021/07/30 03:40:08;;;;;;;6.57;4.80;;;15.80;99.90;;;;;;4954445;29;20038;-72
2021/07/30 03:42:34;;;;;;;7.22;5.28;;;15.70;99.90;;;;;;4954782;29;20027;-72
2021/07/30 03:45:00;;;;;;;6.97;5.13;;;15.70;99.90;;;;;;4953654;28;20039;-72
2021/07/30 03:47:26;;;;;;;6.95;4.55;;;15.60;99.90;;;;;;4954444;29;20035;-72
2021/07/30 03:49:52;;;;;;;8.68;4.30;;;15.60;99.90;;;;;;4954813;29;20039;-72
2021/07/30 03:52:19;;;;;;;6.43;4.25;;;15.60;99.90;;;;;;4953501;28;20070;-72
2021/07/30 03:54:45;;;;;;;9.98;4.88;;;15.50;99.90;;;;;;4954677;29;20041;-72
2021/07/30 03:57:11;;;;;;;9.25;4.65;;;15.50;99.90;;;;;;4968853;28;20481;-73
2021/07/30 03:59:37;;;;;;;7.80;4.72;;;15.50;99.90;;;;;;4955268;28;20043;-72
2021/07/30 04:02:04;;;;;;;6.45;5.00;;;15.50;99.90;;;;;;4955224;29;20039;-72
2021/07/30 04:04:30;;;;;;;7.30;4.85;;;15.40;99.90;;;;;;4959939;28;20043;-72
2021/07/30 04:06:56;;;;;;;7.50;4.78;;;15.40;99.90;;;;;;4962701;29;20042;-73
2021/07/30 04:09:22;;;;;;;5.05;4.13;;;15.30;99.90;;;;;;4957671;29;20046;-72
2021/07/30 04:11:48;;;;;;;6.88;4.65;;;15.40;99.90;;;;;;4953459;29;20051;-72
2021/07/30 04:14:15;;;;;;;7.63;4.25;;;15.30;99.90;;;;;;4952590;28;20039;-72
2021/07/30 04:16:41;;;;;;;7.32;4.03;;;15.30;99.90;;;;;;4943178;29;20036;-72
2021/07/30 04:19:08;;;;;;;6.38;4.07;;;15.30;99.90;;;;;;4950885;29;20039;-72
2021/07/30 04:21:36;;;;;;;7.15;4.40;;;15.30;99.90;;;;;;4954562;29;20031;-72
2021/07/30 04:24:02;;;;;;;7.07;4.78;;;15.30;99.90;;;;;;4954062;28;20055;-72
2021/07/30 04:26:29;;;;;;;4.90;4.10;;;15.40;99.90;;;;;;4957384;28;20046;-72
2021/07/30 04:28:55;;;;;;;5.38;3.78;;;15.50;99.90;;;;;;4952525;29;20045;-72
2021/07/30 04:31:21;;;;;;;7.05;4.35;;;15.60;99.90;;;;;;4935952;29;20047;-73
2021/07/30 04:33:47;;;;;;;5.00;3.60;;;15.80;99.90;;;;;;4952252;29;20031;-73
2021/07/30 04:36:15;;;;;;;5.75;4.38;;;15.90;99.90;;;;;;4953640;29;20031;-73
2021/07/30 04:38:43;;;;;;;5.55;3.83;;;16.00;99.90;;;;;;4953684;28;20059;-73
2021/07/30 04:41:09;;;;;;;4.75;3.85;;;16.10;99.90;;;;;;4954267;29;20046;-73
2021/07/30 04:43:35;;;;;;;6.25;3.65;;;16.10;99.90;;;;;;4960458;28;20034;-73
2021/07/30 04:46:02;;;;;;;5.03;4.18;;;16.20;99.90;;;;;;4954888;29;20035;-73
2021/07/30 04:48:28;;;;;;;5.38;3.53;;;16.20;99.90;;;;;;4953180;29;20032;-72
2021/07/30 04:50:54;;;;;;;5.80;4.00;;;16.30;99.90;;;;;;4952504;29;20036;-72
2021/07/30 04:53:20;;;;;;;5.63;3.95;;;16.40;99.90;;;;;;4953866;28;20053;-72
2021/07/30 04:55:47;;;;;;;5.22;3.75;;;16.60;99.90;;;;;;4953813;28;20035;-71
2021/07/30 04:58:13;;;;;;;4.43;3.63;;;16.80;99.70;;;;;;4952356;29;20359;-71
2021/07/30 05:00:39;;;;;;;5.75;4.03;;;17.00;99.10;;;;;;4953455;28;20405;-71
2021/07/30 05:03:05;;;;;;;7.68;4.00;;;17.40;98.40;;;;;;4953720;28;20051;-71
2021/07/30 05:05:31;;;;;;;5.28;3.83;;;17.40;97.90;;;;;;4952707;28;20051;-71
2021/07/30 05:07:57;;;;;;;8.95;3.60;;;17.40;97.20;;;;;;4953213;29;20039;-72
2021/07/30 05:10:24;;;;;;;7.03;3.50;;;17.20;97.70;;;;;;4962271;28;20376;-71
2021/07/30 05:12:50;;;;;;;6.80;4.20;;;17.20;97.50;;;;;;4953247;29;20031;-72
2021/07/30 05:15:16;;;;;;;5.80;3.58;;;17.20;97.50;;;;;;4952884;29;20482;-72
2021/07/30 05:17:42;;;;;;;4.63;4.00;;;17.40;97.80;;;;;;4953213;29;20039;-72
2021/07/30 05:20:09;;;;;;;5.85;4.00;;;17.90;97.10;;;;;;4952710;29;20039;-72
2021/07/30 05:22:36;;;;;;;4.43;3.60;;;18.40;95.80;;;;;;4952190;28;20052;-72
2021/07/30 05:25:03;;;;;;;4.05;3.30;;;19.00;94.60;;;;;;4937920;29;20031;-72
2021/07/30 05:27:29;;;;;;;6.53;3.60;;;19.70;93.00;;;;;;4952614;29;20470;-72
2021/07/30 05:30:01;;;;;;;6.18;4.10;;;20.20;91.40;;;;;;4935874;28;20044;-72
2021/07/30 05:32:27;;;;;;;5.90;3.95;;;21.10;89.70;;;;;;4952642;29;20028;-72
2021/07/30 05:34:53;;;;;;;6.55;3.60;;;22.00;83.90;;;;;;4952622;29;20035;-72
2021/07/30 05:37:19;;;;;;;4.82;3.28;;;22.80;78.70;;;;;;4952164;29;20042;-72
2021/07/30 05:39:46;;;;;;;4.25;3.60;;;23.10;75.90;;;;;;4952976;29;20046;-73
2021/07/30 05:42:12;;;;;;;4.53;3.20;;;23.90;72.70;;;;;;4952313;29;20031;-72
2021/07/30 05:44:39;;;;;;;7.93;3.50;;;24.90;68.30;;;;;;4953425;29;20039;-72
2021/07/30 05:47:06;;;;;;;4.85;2.30;;;25.00;68.40;;;;;;4952482;28;20039;-72
2021/07/30 05:49:35;;;;;;;6.07;3.17;;;25.70;62.80;;;;;;4952170;29;20485;-72
2021/07/30 05:52:02;;;;;;;3.78;2.60;;;26.10;61.60;;;;;;4951688;29;20032;-73
2021/07/30 05:54:30;;;;;;;4.82;2.85;;;26.20;59.90;;;;;;4951645;28;20409;-73
2021/07/30 05:56:56;;;;;;;5.80;3.10;;;26.00;59.70;;;;;;4952709;29;20032;-73
2021/07/30 05:59:24;;;;;;;5.45;2.95;;;26.30;59.00;;;;;;4950764;29;20074;-73
2021/07/30 06:01:50;;;;;;;4.30;2.60;;;26.10;59.20;;;;;;4952652;29;20035;-73
2021/07/30 06:04:16;;;;;;;5.22;2.40;;;26.60;58.90;;;;;;4965734;28;20046;-73
2021/07/30 06:06:42;;;;;;;2.95;2.47;;;26.50;59.50;;;;;;4951521;28;20042;-70
2021/07/30 06:09:09;;;;;;;5.15;2.97;;;26.80;57.10;;;;;;4955509;29;20291;-72
2021/07/30 06:11:35;;;;;;;5.22;2.67;;;26.10;57.60;;;;;;4956143;29;20453;-72
2021/07/30 06:14:01;;;;;;;4.88;3.15;;;26.00;57.70;;;;;;4956076;29;20042;-71
2021/07/30 06:16:27;;;;;;;5.40;2.35;;;26.20;58.40;;;;;;4946836;29;20034;-72
2021/07/30 06:18:54;;;;;;;6.07;2.80;;;26.00;58.20;;;;;;4957132;29;20040;-72
2021/07/30 06:21:20;;;;;;;6.80;2.90;;;26.00;58.70;;;;;;4955395;29;20385;-73
2021/07/30 06:23:47;;;;;;;4.72;2.75;;;26.80;57.50;;;;;;4958665;28;20058;-73
2021/07/30 06:26:14;;;;;;;6.32;2.75;;;26.90;56.60;;;;;;4958128;28;20046;-73
2021/07/30 06:28:40;;;;;;;5.68;3.25;;;26.40;56.70;;;;;;4953560;28;20054;-72
2021/07/30 06:31:06;;;;;;;7.70;3.00;;;26.10;57.60;;;;;;4964269;28;20051;-73
2021/07/30 06:33:33;;;;;;;4.03;2.38;;;26.40;56.90;;;;;;4964966;28;20031;-72
2021/07/30 06:35:59;;;;;;;6.93;2.67;;;27.00;55.50;;;;;;4957250;28;20042;-72
2021/07/30 06:38:25;;;;;;;4.13;2.80;;;27.40;55.10;;;;;;4953227;28;20035;-73
2021/07/30 06:40:51;;;;;;;5.00;3.10;;;27.60;55.20;;;;;;4956253;29;20031;-73
2021/07/30 06:43:17;;;;;;;13.63;3.13;;;28.10;53.80;;;;;;4955449;28;20043;-72
2021/07/30 06:45:44;;;;;;;5.80;2.97;;;28.30;54.90;;;;;;4955892;29;20035;-73
2021/07/30 06:48:11;;;;;;;5.43;2.75;;;28.90;52.80;;;;;;4960654;28;20034;-74
2021/07/30 06:50:38;;;;;;;5.43;3.20;;;28.70;51.70;;;;;;4965496;28;20374;-73
2021/07/30 06:53:04;;;;;;;4.70;2.38;;;26.90;53.80;;;;;;4956811;28;20043;-73
2021/07/30 06:55:31;;;;;;;5.90;2.45;;;26.70;55.30;;;;;;4969555;28;20665;-73
2021/07/30 06:57:57;;;;;;;6.68;2.65;;;27.20;54.30;;;;;;4954519;29;20046;-73
2021/07/30 07:00:23;;;;;;;3.45;2.78;;;26.50;55.80;;;;;;4953554;29;20067;-73
2021/07/30 07:02:49;;;;;;;5.00;3.30;;;26.30;55.50;;;;;;4955488;28;20048;-72
2021/07/30 07:05:18;;;;;;;4.20;2.78;;;26.00;56.60;;;;;;4954700;28;20043;-72
2021/07/30 07:07:44;;;;;;;5.15;2.85;;;26.50;55.50;;;;;;4954985;28;20051;-72
2021/07/30 07:10:10;;;;;;;7.05;2.90;;;26.40;55.60;;;;;;4955115;29;20043;-72
2021/07/30 07:12:37;;;;;;;5.10;3.25;;;26.80;55.30;;;;;;4954866;29;20042;-72
2021/07/30 07:15:04;;;;;;;3.67;2.58;;;26.90;55.10;;;;;;4953803;29;20043;-73
2021/07/30 07:17:30;;;;;;;6.10;3.30;;;27.20;55.20;;;;;;4954419;29;20038;-73
2021/07/30 07:19:56;;;;;;;4.55;2.97;;;27.10;54.80;;;;;;4954455;28;20043;-73
2021/07/30 07:22:22;;;;;;;5.10;2.92;;;26.90;54.30;;;;;;4954168;28;20151;-73
2021/07/30 07:24:49;;;;;;;4.22;3.28;;;26.90;55.20;;;;;;4954778;29;20369;-72
2021/07/30 07:27:15;;;;;;;6.90;3.17;;;27.30;54.10;;;;;;4954700;29;20031;-73
2021/07/30 07:29:41;;;;;;;4.90;2.80;;;26.70;54.00;;;;;;4954828;29;20042;-72
2021/07/30 07:32:08;;;;;;;3.53;2.67;;;27.20;54.60;;;;;;4954068;29;20039;-72
2021/07/30 07:34:34;;;;;;;5.53;2.85;;;27.10;53.90;;;;;;4954952;28;20477;-72
2021/07/30 07:37:00;;;;;;;4.68;2.83;;;27.00;54.50;;;;;;4954796;29;20034;-72
2021/07/30 07:39:26;;;;;;;4.97;2.70;;;27.50;54.00;;;;;;4954315;29;20050;-72
2021/07/30 07:41:53;;;;;;;4.57;2.70;;;27.60;53.40;;;;;;4954905;29;20035;-71
2021/07/30 07:44:19;;;;;;;6.65;2.70;;;27.40;54.20;;;;;;4954182;28;20048;-72
2021/07/30 07:46:47;;;;;;;4.32;3.25;;;27.60;53.40;;;;;;4945929;28;20043;-71
2021/07/30 07:49:13;;;;;;;5.95;2.72;;;27.90;53.70;;;;;;4953901;29;20113;-71
2021/07/30 07:51:39;;;;;;;3.97;2.20;;;27.30;53.90;;;;;;4954557;29;20038;-71
2021/07/30 07:54:06;;;;;;;4.18;2.22;;;27.10;54.30;;;;;;4954390;29;20032;-72
2021/07/30 07:56:32;;;;;;;4.45;2.42;;;27.30;54.00;;;;;;4953958;29;20409;-72
2021/07/30 07:59:00;;;;;;;4.28;2.78;;;27.90;53.40;;;;;;4967717;28;20474;-72
2021/07/30 08:01:26;;;;;;;4.95;2.72;;;27.30;53.30;;;;;;4952539;29;20035;-72
2021/07/30 08:03:52;;;;;;;4.28;2.70;;;26.90;54.70;;;;;;4953384;28;20066;-72
2021/07/30 08:06:22;;;;;;;3.15;2.38;;;27.10;53.70;;;;;;4947942;28;20031;-72
2021/07/30 08:08:49;;;;;;;4.43;2.60;;;27.40;54.30;;;;;;4951845;29;20477;-72
2021/07/30 08:11:16;;;;;;;2.92;2.45;;;27.50;52.90;;;;;;4952655;28;20031;-72
2021/07/30 08:13:43;;;;;;;4.35;2.85;;;27.60;52.70;;;;;;4953323;29;20031;-72
2021/07/30 08:16:09;;;;;;;3.33;2.72;;;27.80;52.70;;;;;;4958262;28;20026;-73
2021/07/30 08:18:35;;;;;;;4.50;2.80;;;26.30;54.30;;;;;;4964578;28;20022;-73
2021/07/30 08:21:02;;;;;;;4.18;2.78;;;25.80;55.80;;;;;;4978864;28;20035;-74
2021/07/30 08:23:29;;;;;;;6.45;2.92;;;25.90;54.70;;;;;;4955037;28;20047;-73
2021/07/30 08:25:55;;;;;;;4.70;2.30;;;26.60;55.60;;;;;;4954438;28;20047;-72
2021/07/30 08:28:22;;;;;;;4.88;2.60;;;27.60;54.20;;;;;;4945431;28;20046;-72
2021/07/30 08:30:48;;;;;;;5.50;2.67;;;28.50;52.30;;;;;;4950490;28;20054;-74
2021/07/30 08:33:16;;;;;;;4.18;2.53;;;27.80;52.20;;;;;;4936237;28;20054;-74
2021/07/30 08:35:42;;;;;;;5.55;2.90;;;27.70;53.60;;;;;;4950596;29;20367;-74
2021/07/30 08:38:09;;;;;;;6.38;2.78;;;28.10;52.90;;;;;;4953743;29;20047;-74
2021/07/30 08:40:38;;;;;;;5.35;2.42;;;28.30;52.70;;;;;;4955690;29;20046;-75
2021/07/30 08:43:04;;;;;;;6.82;2.80;;;27.60;52.80;;;;;;4954491;29;20031;-74
2021/07/30 08:45:31;;;;;;;4.40;2.58;;;27.20;53.90;;;;;;4952617;29;20023;-73
2021/07/30 08:48:00;;;;;;;3.85;2.42;;;27.00;54.00;;;;;;4954161;28;20520;-74
2021/07/30 08:50:28;;;;;;;4.20;2.40;;;27.50;53.80;;;;;;4950949;29;20032;-73
2021/07/30 08:52:57;;;;;;;5.47;2.60;;;27.10;53.60;;;;;;4953254;29;20043;-73
2021/07/30 08:55:29;;;;;;;4.68;2.63;;;26.90;54.50;;;;;;4953133;28;20050;-74
2021/07/30 08:57:56;;;;;;;3.65;2.55;;;27.40;53.50;;;;;;4953400;29;20402;-75
2021/07/30 09:00:22;;;;;;;5.75;2.65;;;27.90;53.10;;;;;;4952900;29;20043;-74
2021/07/30 09:02:49;;;;;;;4.70;2.53;;;28.20;52.60;;;;;;4952602;28;20048;-74
2021/07/30 09:05:24;;;;;;;4.95;2.42;;;28.50;52.40;;;;;;4952864;28;20058;-75
2021/07/30 09:07:51;;;;;;;4.65;2.65;;;28.10;52.40;;;;;;4953402;29;20370;-73
2021/07/30 09:10:27;;;;;;;3.30;2.05;;;27.50;53.50;;;;;;4953165;29;20043;-75
2021/07/30 09:13:19;;;;;;;3.38;2.08;;;28.00;52.20;;;;;;4968115;28;20488;-73
2021/07/30 09:16:18;;;;;;;3.55;2.20;;;28.10;52.10;;;;;;4952058;28;20407;-73
2021/07/30 09:18:45;;;;;;;6.85;2.05;;;27.90;52.60;;;;;;4927633;28;20038;-74
2021/07/30 09:21:32;;;;;;;4.03;2.30;;;28.40;53.10;;;;;;4954258;28;20031;-73
2021/07/30 09:24:05;;;;;;;3.08;2.30;;;28.00;51.00;;;;;;4956378;28;20350;-73
2021/07/30 09:26:53;;;;;;;3.58;2.13;;;26.80;53.30;;;;;;4958716;28;20035;-73
2021/07/30 09:29:21;;;;;;;3.03;2.60;;;28.00;53.30;;;;;;4952031;29;20046;-73
2021/07/30 09:31:55;;;;;;;3.15;2.10;;;27.90;54.30;;;;;;4965742;28;20032;-73
2021/07/30 09:34:27;;;;;;;3.75;2.25;;;28.20;51.60;;;;;;4952609;29;20035;-73
2021/07/30 09:36:55;;;;;;;4.30;2.25;;;28.00;52.60;;;;;;4953166;29;20046;-74
2021/07/30 09:39:37;;;;;;;4.68;2.88;;;27.80;52.10;;;;;;4952635;29;20374;-73
2021/07/30 09:42:10;;;;;;;3.50;2.28;;;27.90;52.40;;;;;;4959498;28;20042;-73
2021/07/30 09:44:54;;;;;;;4.70;2.33;;;27.70;52.00;;;;;;4957192;28;20031;-74
2021/07/30 09:47:24;;;;;;;4.68;2.13;;;27.80;51.70;;;;;;4956482;29;20035;-72
2021/07/30 09:50:04;;;;;;;4.78;2.55;;;27.60;52.70;;;;;;4956919;29;20066;-73
2021/07/30 09:52:33;;;;;;;2.53;2.10;;;28.10;52.30;;;;;;4956074;29;20035;-74
2021/07/30 09:55:01;;;;;;;3.40;2.17;;;27.50;52.50;;;;;;4957567;29;20374;-73
2021/07/30 09:57:31;;;;;;;4.45;2.40;;;27.50;53.30;;;;;;4955429;28;20040;-72
2021/07/30 10:00:07;;;;;;;3.22;2.20;;;27.60;52.70;;;;;;4957218;29;20524;-73
2021/07/30 10:02:35;;;;;;;5.43;2.13;;;27.20;52.50;;;;;;4956404;29;20039;-73
2021/07/30 10:05:03;;;;;;;5.68;2.58;;;27.30;52.00;;;;;;4956661;28;20382;-73
2021/07/30 10:07:32;;;;;;;4.80;2.40;;;27.20;53.60;;;;;;4956497;29;20034;-74
2021/07/30 10:10:26;;;;;;;3.80;2.50;;;26.80;53.50;;;;;;4957136;28;20378;-73
2021/07/30 10:13:02;;;;;;;3.72;2.60;;;26.30;54.10;;;;;;4956922;29;20038;-73
2021/07/30 10:15:29;;;;;;;4.95;2.75;;;26.40;54.50;;;;;;4955746;29;20381;-74
2021/07/30 10:17:56;;;;;;;8.43;2.72;;;26.60;54.30;;;;;;4947207;29;20035;-75
2021/07/30 10:20:25;;;;;;;3.53;2.33;;;26.60;54.30;;;;;;4954728;29;20054;-76
2021/07/30 10:22:57;;;;;;;3.33;2.88;;;26.50;53.40;;;;;;4956505;29;20032;-75
2021/07/30 10:25:28;;;;;;;4.40;2.75;;;26.10;55.30;;;;;;4955679;28;20050;-75
2021/07/30 10:28:03;;;;;;;6.03;2.40;;;26.30;53.70;;;;;;4957033;28;20043;-74
2021/07/30 10:30:49;;;;;;;4.57;2.70;;;26.20;54.70;;;;;;4956504;28;20058;-75
2021/07/30 10:33:38;;;;;;;2.50;2.20;;;26.10;54.90;;;;;;4955399;29;20031;-75
2021/07/30 10:36:13;;;;;;;4.68;2.83;;;26.40;54.80;;;;;;4955996;28;20051;-76
2021/07/30 10:38:41;;;;;;;4.32;3.00;;;26.20;54.20;;;;;;4956462;28;20043;-74
2021/07/30 10:41:07;;;;;;;4.75;3.30;;;26.00;56.30;;;;;;4955346;29;20050;-73
2021/07/30 10:43:48;;;;;;;2.95;2.20;;;25.70;54.20;;;;;;4955974;28;20047;-73
2021/07/30 10:46:16;;;;;;;4.97;2.60;;;25.60;55.40;;;;;;4969458;28;20055;-75
2021/07/30 10:48:43;;;;;;;6.80;3.22;;;25.90;54.20;;;;;;4955966;29;20038;-73
2021/07/30 10:51:21;;;;;;;5.22;2.50;;;25.60;55.40;;;;;;4957354;29;20062;-72
2021/07/30 10:53:52;;;;;;;5.30;2.95;;;25.80;55.60;;;;;;4939874;28;20040;-72
2021/07/30 10:56:18;;;;;;;3.85;2.60;;;25.90;55.60;;;;;;4955080;28;20050;-73
2021/07/30 10:58:44;;;;;;;6.47;2.92;;;26.10;57.10;;;;;;4970332;28;20401;-73
2021/07/30 11:01:15;;;;;;;3.88;2.83;;;26.60;55.00;;;;;;4970931;28;20067;-74
2021/07/30 11:03:51;;;;;;;3.10;2.50;;;26.70;54.20;;;;;;4947928;29;20039;-73
2021/07/30 11:06:26;;;;;;;6.70;2.80;;;26.70;54.80;;;;;;4954221;28;20039;-73
2021/07/30 11:09:02;;;;;;;3.70;2.70;;;26.70;55.10;;;;;;4955883;29;20038;-73
2021/07/30 11:11:44;;;;;;;4.90;2.53;;;26.40;54.70;;;;;;4941956;29;20054;-75
2021/07/30 11:14:14;;;;;;;5.95;2.92;;;26.00;54.30;;;;;;4955402;28;20108;-74
2021/07/30 11:16:45;;;;;;;3.77;2.67;;;26.20;54.70;;;;;;4954622;29;20040;-74
2021/07/30 11:19:13;;;;;;;4.18;2.85;;;26.60;54.10;;;;;;4938407;29;20422;-73
2021/07/30 11:21:41;;;;;;;4.20;2.83;;;26.80;53.40;;;;;;4955420;29;20031;-72
2021/07/30 11:24:08;;;;;;;3.30;2.55;;;27.00;53.90;;;;;;4951528;29;20150;-73
2021/07/30 11:26:37;;;;;;;7.70;2.72;;;26.90;53.80;;;;;;4950848;28;20046;-73
2021/07/30 11:29:16;;;;;;;4.35;3.03;;;26.50;54.20;;;;;;4955758;29;20031;-73
2021/07/30 11:32:06;;;;;;;3.45;2.65;;;26.70;53.40;;;;;;4951860;29;20063;-73
2021/07/30 11:34:36;;;;;;;;;;;26.70;52.80;;;;;;4937301;29;20517;-73
2021/07/30 11:37:10;;;;;;;4.45;3.15;;;26.40;54.20;;;;;;4955338;29;19917;-73
2021/07/30 11:39:43;;;;;;;6.05;2.95;;;26.50;54.60;;;;;;4954860;29;20047;-72
2021/07/30 11:42:37;;;;;;;6.70;2.92;;;27.00;53.70;;;;;;4954429;28;20130;-74
2021/07/30 11:45:07;;;;;;;5.22;2.80;;;27.30;53.10;;;;;;4953713;29;20507;-75
2021/07/30 11:47:36;;;;;;;3.88;2.42;;;27.30;53.00;;;;;;4954414;29;20131;-74
2021/07/30 11:50:14;;;;;;;5.95;2.10;;;27.40;53.20;;;;;;4955110;29;20035;-73
2021/07/30 11:52:44;;;;;;;5.40;2.88;;;27.40;52.30;;;;;;4954643;28;20054;-74
2021/07/30 11:55:15;;;;;;;5.15;3.00;;;27.10;53.20;;;;;;4955136;28;20047;-74
2021/07/30 11:57:41;;;;;;;4.57;2.75;;;27.20;53.40;;;;;;4952344;29;20068;-75
2021/07/30 12:00:08;;;;;;;4.80;2.88;;;27.40;53.00;;;;;;4953666;29;20043;-75
2021/07/30 12:02:38;;;;;;;3.33;2.38;;;27.60;52.50;;;;;;4942445;29;20398;-74
2021/07/30 12:05:05;;;;;;;4.63;2.40;;;27.60;51.30;;;;;;4953161;28;20469;-74
2021/07/30 12:07:36;;;;;;;4.45;3.30;;;27.50;51.50;;;;;;4953372;29;20031;-74
2021/07/30 12:10:08;;;;;;;4.93;3.10;;;27.70;51.40;;;;;;4953542;29;20473;-74
2021/07/30 12:12:40;;;;;;;3.47;2.35;;;27.70;52.00;;;;;;4953921;29;20027;-75
2021/07/30 12:15:07;;;;;;;4.25;2.75;;;27.20;52.20;;;;;;4952442;29;20110;-77
2021/07/30 12:17:34;;;;;;;3.85;2.58;;;27.50;51.70;;;;;;4953868;29;20043;-75
2021/07/30 12:20:06;;;;;;;3.92;2.80;;;27.40;51.20;;;;;;4953164;29;20039;-75
2021/07/30 12:22:40;;;;;;;3.40;2.70;;;27.50;51.70;;;;;;4953824;29;20354;-74
2021/07/30 12:25:12;;;;;;;5.07;3.17;;;27.70;51.00;;;;;;4953022;29;20469;-74
2021/07/30 12:27:39;;;;;;;3.33;2.30;;;28.10;50.30;;;;;;4942633;29;20394;-75
2021/07/30 12:30:06;;;;;;;3.28;2.45;;;28.00;50.70;;;;;;4948223;29;20046;-74
2021/07/30 12:32:38;;;;;;;4.25;2.70;;;27.90;50.70;;;;;;4953341;29;20034;-74
2021/07/30 12:35:04;;;;;;;5.32;3.08;;;28.10;50.70;;;;;;4954061;29;20039;-74
2021/07/30 12:37:33;;;;;;;5.22;3.00;;;28.00;50.80;;;;;;4953396;28;20043;-75
2021/07/30 12:40:02;;;;;;;4.32;2.40;;;28.20;50.60;;;;;;4935665;28;20051;-74
2021/07/30 12:42:31;;;;;;;3.00;2.55;;;28.30;50.30;;;;;;4958428;28;20496;-75
2021/07/30 12:45:13;;;;;;;4.28;2.70;;;28.20;50.60;;;;;;4952406;29;20417;-74
2021/07/30 12:48:06;;;;;;;4.22;3.28;;;28.30;51.80;;;;;;4953597;29;20031;-74
2021/07/30 12:50:39;;;;;;;3.80;3.38;;;28.20;50.70;;;;;;4953868;28;20519;-75
2021/07/30 12:53:08;;;;;;;6.20;2.80;;;27.90;51.20;;;;;;4954014;29;20042;-74